Strona główna
METAR-TAF:

METAR-TAF

Lotnisko :

Port lotniczy Chimoio

Chimoio, Mozambik

Szerokość geograficzna: 19-07S, Długość geograficzna: 033-28E, wysokość: 731 m

Aktualna obserwacja pogody

Raport powstał 1 godzina i 0 minut temu, godzina 19:00 UTC
Temperatura 24°C
Wilgotność 100%
Ciśnienie 1016 hPa
Widzialność 10 km lub więcej
Mało chmury na wysokości 1500 ft

METAR: FQCH 201900Z /////KT 9999 FEW015 24/24 Q1016

czas: 22:00 (20:00 UTC)

Prognoza

Raport powstał 4 godziny i 0 minut temu, godzina 16:00 UTC
Prognoza ważna od 20 godzina 18 UTC do 21 godzina 18 UTC
Wiatr 12 kt od wschód
Widzialność 10 km lub więcej
Rozproszone chmury na wysokości 1800 ft
Stopniowe zmiany
od 21 godzina 06 UTC do 21 godzina 08 UTC
Wiatr 5 kt od północno-północny wschód
Stopniowe zmiany
od 21 godzina 12 UTC do 21 godzina 14 UTC
Wiatr 10 kt od wschód

TAF: FQCH 201600Z 2018/2118 10012KT 9999 SCT018 TX30/2113Z TN23/2103Z BECMG 2106/2108 02005KT BECMG 2112/2114 10010KT

Obserwacja i prognoza pogody dla ponad 4000 lotnisk (raport METAR i TAF).

Dostępne stacje oznaczono żółtymi i czerwonymi punktami na mapie.

Najedź kursorem aby zobaczyć nazwę stacji.

Kliknij aby zobaczyć obserwacje i prognozy pogody.

Aby zmienić mapę: kliknij na zielony przycisk z czarnym krzyżykiem, aby powiększyć; na zielony przycisk z myślnikiem, aby pomniejszyć; na zielone strzałki, aby przejść do map sąsiednich.


METAR-TAF: